Página principal
METAR-TAF:

METAR-TAF

Aeroportos :

Bryan, Texas, Estados Unidos

latitude: 30-42-56N, longitude: 096-19-53W, altura: 112 m

Observação actual do tempo

O boletim foi feito há 14 minutos, às 09:35 UTC
Vento 5 kt de su-sudeste
Temperatura 12°C
Humidade 88%
Pressão 1020 hPa
Visibilidade: 16.1 km
Encobertoa uma altura de 4500 ft

METAR: KCFD 120935Z AUTO 16005KT 10SM OVC045 12/10 A3012 RMK AO2 T01200095

Hora: 02:49 (09:49 UTC)


TAF: em falta

Observações e previsões do tempo de mais de 4000 aeroportos (mensagens METAR e TAF).

As estações disponíveis são os pontos amarelos e vermelhos sobre o mapa.

Mova o rato sobre o mapa para ver o nome da estação.

Depois clique no ponto para visualizar as observações e previsões meteorológicas.

Para alterar o mapa : clique nos botões verdes com uma cruz preta para aumentar o zoom; no botão verde com uma pitada de zoom; ou nas setas verdes para mapas adjacentes.


METAR-TAF: